Time;durP1;ratioP1;P1;durP2;ratioP2;P2;SDS_P1;SDS_P2;PMS_P1;PMS_P2;Temp;Humidity;BMP_temperature;BMP_pressure;BME280_temperature;BME280_humidity;BME280_pressure;Samples;Min_cycle;Max_cycle;Signal;HPM_P1;HPM_P2
2023/09/14 00:01:13;;;;;;;10.80;4.38;;;;;;;;;;5034287;28;20029;-79
2023/09/14 00:03:38;;;;;;;9.82;5.10;;;;;;;;;;5034970;28;20021;-79
2023/09/14 00:06:03;;;;;;;12.30;5.55;;;;;;;;;;5068535;28;20026;-79
2023/09/14 00:08:30;;;;;;;10.82;5.20;;;;;;;;;;5025769;28;20033;-79
2023/09/14 00:10:56;;;;;;;12.30;5.25;;;;;;;;;;5034968;28;20021;-79
2023/09/14 00:13:21;;;;;;;15.52;6.13;;;;;;;;;;5030480;28;20660;-79
2023/09/14 00:15:47;;;;;;;15.63;5.50;;;;;;;;;;5059617;28;20033;-79
2023/09/14 00:18:12;;;;;;;11.20;5.68;;;;;;;;;;5032494;28;20032;-79
2023/09/14 00:20:37;;;;;;;19.13;5.50;;;;;;;;;;5055859;28;20178;-92
2023/09/14 00:23:03;;;;;;;14.60;5.37;;;;;;;;;;5033255;28;20387;-92
2023/09/14 00:25:28;;;;;;;10.27;4.88;;;;;;;;;;5066026;28;20664;-93
2023/09/14 00:27:55;;;;;;;13.18;5.18;;;;;;;;;;5033193;28;20021;-92
2023/09/14 00:30:20;;;;;;;13.32;5.43;;;;;;;;;;5033515;28;20076;-92
2023/09/14 00:32:47;;;;;;;12.52;5.05;;;;;;;;;;5016534;28;20396;-93
2023/09/14 00:35:13;;;;;;;15.75;5.80;;;;;;;;;;5051063;28;20029;-92
2023/09/14 00:37:38;;;;;;;9.32;4.88;;;;;;;;;;5002341;28;20120;-92
2023/09/14 00:40:06;;;;;;;17.05;5.88;;;;;;;;;;5048365;28;20057;-92
2023/09/14 00:42:41;;;;;;;11.32;5.40;;;;;;;;;;5049406;28;20113;-93
2023/09/14 00:45:07;;;;;;;16.20;5.55;;;;;;;;;;5038696;28;20383;-93
2023/09/14 00:47:33;;;;;;;10.23;5.15;;;;;;;;;;5052604;28;20025;-93
2023/09/14 00:49:58;;;;;;;15.30;5.57;;;;;;;;;;5038454;28;20075;-93
2023/09/14 00:52:23;;;;;;;16.92;5.22;;;;;;;;;;5048979;28;20124;-92
2023/09/14 00:54:49;;;;;;;13.07;5.28;;;;;;;;;;5054966;28;20051;-92
2023/09/14 00:57:15;;;;;;;10.47;5.00;;;;;;;;;;5035654;28;20021;-92
2023/09/14 00:59:40;;;;;;;15.10;6.15;;;;;;;;;;5025424;28;20287;-92
2023/09/14 01:02:07;;;;;;;9.77;4.85;;;;;;;;;;5035046;28;20021;-93
2023/09/14 01:04:32;;;;;;;12.35;5.25;;;;;;;;;;5018810;28;20076;-93
2023/09/14 01:07:00;;;;;;;8.73;4.63;;;;;;;;;;5017628;28;20021;-93
2023/09/14 01:09:25;;;;;;;14.93;5.75;;;;;;;;;;5020342;28;20034;-92
2023/09/14 01:11:51;;;;;;;15.57;5.57;;;;;;;;;;5031288;28;20033;-92
2023/09/14 01:14:23;;;;;;;13.17;5.47;;;;;;;;;;5018979;28;20055;-93
2023/09/14 01:17:01;;;;;;;18.25;5.60;;;;;;;;;;5066361;28;20315;-93
2023/09/14 01:19:30;;;;;;;11.13;4.82;;;;;;;;;;5032647;28;20033;-92
2023/09/14 01:22:07;;;;;;;15.27;5.35;;;;;;;;;;5048576;28;20037;-93
2023/09/14 01:24:46;;;;;;;10.38;5.80;;;;;;;;;;5051574;28;20069;-93
2023/09/14 01:27:13;;;;;;;14.73;4.93;;;;;;;;;;5039849;28;20444;-93
2023/09/14 01:29:40;;;;;;;11.63;4.90;;;;;;;;;;5052862;28;20041;-93
2023/09/14 01:32:05;;;;;;;12.32;4.88;;;;;;;;;;5042813;28;20018;-79
2023/09/14 01:34:31;;;;;;;19.48;5.10;;;;;;;;;;5011207;28;20039;-79
2023/09/14 01:36:57;;;;;;;11.10;4.85;;;;;;;;;;5059097;28;20496;-79
2023/09/14 01:39:24;;;;;;;12.35;5.13;;;;;;;;;;5025074;28;20041;-79
2023/09/14 01:41:54;;;;;;;12.48;5.03;;;;;;;;;;5066217;28;20064;-79
2023/09/14 01:44:20;;;;;;;13.40;5.22;;;;;;;;;;5025410;28;20091;-79
2023/09/14 01:46:45;;;;;;;13.13;5.22;;;;;;;;;;5025939;28;20078;-79
2023/09/14 01:49:10;;;;;;;14.53;5.83;;;;;;;;;;5028517;28;20064;-79
2023/09/14 01:51:37;;;;;;;12.27;4.97;;;;;;;;;;5023487;28;20294;-80
2023/09/14 01:54:03;;;;;;;19.88;6.45;;;;;;;;;;5038983;28;20429;-79
2023/09/14 01:56:28;;;;;;;14.93;5.00;;;;;;;;;;4995009;28;20124;-79
2023/09/14 01:58:53;;;;;;;14.17;4.93;;;;;;;;;;5031031;28;20488;-80
2023/09/14 02:01:18;;;;;;;11.70;5.33;;;;;;;;;;5024675;28;20323;-79
2023/09/14 02:03:45;;;;;;;18.30;5.27;;;;;;;;;;5025881;28;20057;-79
2023/09/14 02:06:10;;;;;;;17.33;6.18;;;;;;;;;;5041421;28;20421;-79
2023/09/14 02:08:36;;;;;;;13.83;5.13;;;;;;;;;;5031070;28;20029;-79
2023/09/14 02:11:01;;;;;;;15.23;5.50;;;;;;;;;;5029872;28;21854;-79
2023/09/14 02:13:27;;;;;;;10.93;5.05;;;;;;;;;;5030183;28;20037;-79
2023/09/14 02:15:53;;;;;;;12.40;5.13;;;;;;;;;;5045915;28;20491;-79
2023/09/14 02:18:18;;;;;;;10.13;4.65;;;;;;;;;;5031010;28;20115;-79
2023/09/14 02:20:43;;;;;;;12.13;5.20;;;;;;;;;;5027775;28;20157;-79
2023/09/14 02:23:09;;;;;;;16.83;4.37;;;;;;;;;;5028232;28;21074;-79
2023/09/14 02:25:34;;;;;;;8.52;3.80;;;;;;;;;;5040917;28;20491;-78
2023/09/14 02:27:59;;;;;;;13.15;4.07;;;;;;;;;;5032734;28;20049;-79
2023/09/14 02:30:26;;;;;;;8.07;2.90;;;;;;;;;;5022248;28;20113;-79
2023/09/14 02:32:51;;;;;;;9.15;3.85;;;;;;;;;;5023821;28;20294;-80
2023/09/14 02:35:16;;;;;;;11.90;4.75;;;;;;;;;;5032203;28;20025;-79
2023/09/14 02:37:42;;;;;;;6.73;3.70;;;;;;;;;;5028587;28;20045;-79
2023/09/14 02:40:07;;;;;;;6.10;3.90;;;;;;;;;;5031592;28;20280;-80
2023/09/14 02:42:36;;;;;;;10.07;5.10;;;;;;;;;;5030817;28;20325;-79
2023/09/14 02:45:02;;;;;;;7.70;4.75;;;;;;;;;;5037143;28;20079;-79
2023/09/14 02:47:27;;;;;;;16.52;5.30;;;;;;;;;;5037622;28;20061;-79
2023/09/14 02:49:52;;;;;;;13.20;5.30;;;;;;;;;;5039724;28;20075;-79
2023/09/14 02:52:17;;;;;;;11.17;5.17;;;;;;;;;;5020626;28;20295;-79
2023/09/14 02:54:42;;;;;;;14.32;5.53;;;;;;;;;;5042680;28;20037;-80
2023/09/14 02:57:08;;;;;;;12.70;5.80;;;;;;;;;;5036821;28;20029;-79
2023/09/14 02:59:33;;;;;;;8.63;4.87;;;;;;;;;;5039391;28;20294;-79
2023/09/14 03:01:58;;;;;;;14.93;5.03;;;;;;;;;;5043514;28;20299;-79
2023/09/14 03:04:24;;;;;;;10.20;4.82;;;;;;;;;;5038200;28;20032;-79
2023/09/14 03:06:49;;;;;;;13.65;5.80;;;;;;;;;;5035748;28;20408;-79
2023/09/14 03:09:15;;;;;;;14.90;4.78;;;;;;;;;;5036443;28;20022;-79
2023/09/14 03:11:40;;;;;;;10.23;6.07;;;;;;;;;;5033546;28;20025;-79
2023/09/14 03:14:05;;;;;;;11.53;4.77;;;;;;;;;;5032900;28;20045;-79
2023/09/14 03:16:30;;;;;;;17.97;5.80;;;;;;;;;;5022470;28;20299;-80
2023/09/14 03:18:56;;;;;;;9.32;4.22;;;;;;;;;;5025668;28;20538;-79
2023/09/14 03:21:25;;;;;;;15.70;5.17;;;;;;;;;;5040902;28;20050;-79
2023/09/14 03:23:51;;;;;;;7.90;4.35;;;;;;;;;;5024759;28;20787;-79
2023/09/14 03:26:17;;;;;;;15.27;4.88;;;;;;;;;;5056484;28;20021;-79
2023/09/14 03:28:42;;;;;;;8.13;4.45;;;;;;;;;;5026135;28;20029;-80
2023/09/14 03:31:08;;;;;;;8.95;4.22;;;;;;;;;;5062670;28;20026;-79
2023/09/14 03:33:34;;;;;;;10.68;4.43;;;;;;;;;;5022652;28;20962;-79
2023/09/14 03:35:59;;;;;;;10.73;4.47;;;;;;;;;;5033043;28;20029;-79
2023/09/14 03:38:24;;;;;;;13.30;6.25;;;;;;;;;;5027226;28;20326;-79
2023/09/14 03:40:50;;;;;;;14.73;4.90;;;;;;;;;;5031201;28;20436;-79
2023/09/14 03:43:15;;;;;;;18.05;5.90;;;;;;;;;;5036653;28;20024;-79
2023/09/14 03:45:40;;;;;;;14.05;4.60;;;;;;;;;;5018683;28;20444;-78
2023/09/14 03:48:06;;;;;;;12.33;5.43;;;;;;;;;;5045156;28;20464;-79
2023/09/14 03:50:31;;;;;;;15.95;5.60;;;;;;;;;;5057034;28;20334;-93
2023/09/14 03:52:56;;;;;;;9.07;4.73;;;;;;;;;;5039334;28;20030;-93
2023/09/14 03:55:22;;;;;;;17.88;5.57;;;;;;;;;;5015837;28;20438;-93
2023/09/14 03:57:47;;;;;;;13.75;5.13;;;;;;;;;;5034830;28;20025;-93
2023/09/14 04:00:15;;;;;;;18.30;5.45;;;;;;;;;;5055352;28;20530;-92
2023/09/14 04:02:41;;;;;;;14.32;5.60;;;;;;;;;;5070135;28;20052;-92
2023/09/14 04:05:13;;;;;;;12.20;5.38;;;;;;;;;;5017495;28;20033;-91
2023/09/14 04:07:39;;;;;;;8.77;4.50;;;;;;;;;;5064904;28;20032;-91
2023/09/14 04:10:06;;;;;;;14.65;4.10;;;;;;;;;;5037732;28;20108;-91
2023/09/14 04:12:31;;;;;;;9.75;4.43;;;;;;;;;;5080183;28;20032;-91
2023/09/14 04:14:56;;;;;;;11.87;4.40;;;;;;;;;;5037841;28;20025;-91
2023/09/14 04:17:21;;;;;;;8.27;4.03;;;;;;;;;;5019311;28;20281;-91
2023/09/14 04:19:47;;;;;;;11.18;4.60;;;;;;;;;;5042564;28;20334;-92
2023/09/14 04:22:12;;;;;;;12.55;4.57;;;;;;;;;;5051692;28;20083;-91
2023/09/14 04:24:37;;;;;;;16.50;4.33;;;;;;;;;;5067993;28;20533;-90
2023/09/14 04:27:03;;;;;;;11.48;5.43;;;;;;;;;;5055424;28;20298;-92
2023/09/14 04:29:31;;;;;;;16.50;5.60;;;;;;;;;;5035334;28;20040;-90
2023/09/14 04:31:56;;;;;;;19.98;5.90;;;;;;;;;;5067278;28;20025;-90
2023/09/14 04:34:23;;;;;;;15.75;6.45;;;;;;;;;;5048109;28;20034;-90
2023/09/14 04:36:48;;;;;;;16.20;6.55;;;;;;;;;;5061306;28;20025;-87
2023/09/14 04:39:14;;;;;;;19.25;7.20;;;;;;;;;;5047085;28;20551;-89
2023/09/14 04:41:39;;;;;;;15.82;5.93;;;;;;;;;;5047588;28;20029;-89
2023/09/14 04:44:05;;;;;;;16.63;5.50;;;;;;;;;;5041893;28;20013;-88
2023/09/14 04:46:30;;;;;;;12.93;5.43;;;;;;;;;;5027728;28;20021;-88
2023/09/14 04:48:55;;;;;;;16.92;5.75;;;;;;;;;;5061506;28;20021;-87
2023/09/14 04:51:23;;;;;;;18.00;5.87;;;;;;;;;;5017667;28;20463;-88
2023/09/14 04:53:48;;;;;;;13.88;5.50;;;;;;;;;;5017454;28;20053;-87
2023/09/14 04:56:13;;;;;;;15.25;5.47;;;;;;;;;;5018765;28;20029;-88
2023/09/14 04:58:39;;;;;;;14.33;4.97;;;;;;;;;;5026724;28;20209;-90
2023/09/14 05:01:05;;;;;;;21.48;5.25;;;;;;;;;;5036140;28;20294;-90
2023/09/14 05:03:30;;;;;;;11.82;4.50;;;;;;;;;;5066639;28;20559;-90
2023/09/14 05:05:56;;;;;;;11.27;4.70;;;;;;;;;;5067648;28;20056;-90
2023/09/14 05:08:21;;;;;;;15.55;4.75;;;;;;;;;;5041635;28;20124;-90
2023/09/14 05:10:50;;;;;;;7.72;4.35;;;;;;;;;;5034463;28;20014;-90
2023/09/14 05:13:20;;;;;;;9.77;4.53;;;;;;;;;;5049175;28;20411;-90
2023/09/14 05:15:46;;;;;;;5.97;4.10;;;;;;;;;;5021333;28;20468;-90
2023/09/14 05:18:11;;;;;;;8.73;4.60;;;;;;;;;;5070942;28;20071;-91
2023/09/14 05:20:36;;;;;;;7.97;4.68;;;;;;;;;;5031898;28;20077;-90
2023/09/14 05:23:03;;;;;;;8.93;4.20;;;;;;;;;;5015984;28;20046;-90
2023/09/14 05:25:29;;;;;;;8.02;4.47;;;;;;;;;;5034371;28;20295;-90
2023/09/14 05:27:55;;;;;;;13.10;4.55;;;;;;;;;;5004179;28;20436;-90
2023/09/14 05:30:22;;;;;;;11.63;4.47;;;;;;;;;;5019434;28;20026;-90
2023/09/14 05:32:49;;;;;;;12.00;5.00;;;;;;;;;;5065218;28;20030;-91
2023/09/14 05:35:14;;;;;;;5.40;3.75;;;;;;;;;;5044856;28;20025;-89
2023/09/14 05:37:39;;;;;;;11.02;5.18;;;;;;;;;;5020366;28;20186;-90
2023/09/14 05:40:11;;;;;;;10.47;5.47;;;;;;;;;;5051054;28;20484;-89
2023/09/14 05:42:37;;;;;;;11.98;4.85;;;;;;;;;;5049167;28;20029;-89
2023/09/14 05:45:04;;;;;;;15.65;5.10;;;;;;;;;;5034729;28;20033;-89
2023/09/14 05:47:29;;;;;;;20.77;5.88;;;;;;;;;;5032633;28;20020;-90
2023/09/14 05:49:55;;;;;;;18.07;6.07;;;;;;;;;;5023473;28;20097;-88
2023/09/14 05:52:20;;;;;;;20.87;6.33;;;;;;;;;;5028568;28;20029;-89
2023/09/14 05:54:45;;;;;;;13.63;5.70;;;;;;;;;;5046459;28;20033;-88
2023/09/14 05:57:10;;;;;;;14.67;5.10;;;;;;;;;;5065927;28;20033;-89
2023/09/14 05:59:36;;;;;;;15.27;4.80;;;;;;;;;;5014981;28;20292;-89
2023/09/14 06:02:01;;;;;;;7.90;4.93;;;;;;;;;;5048413;28;20666;-89
2023/09/14 06:04:26;;;;;;;12.52;4.95;;;;;;;;;;5013201;28;20384;-89
2023/09/14 06:06:51;;;;;;;11.40;5.60;;;;;;;;;;5032046;28;21496;-89
2023/09/14 06:09:17;;;;;;;18.95;5.13;;;;;;;;;;5065664;28;20288;-89
2023/09/14 06:11:42;;;;;;;13.77;5.72;;;;;;;;;;5020831;28;20526;-77
2023/09/14 06:14:08;;;;;;;16.65;4.82;;;;;;;;;;5044435;28;20380;-77
2023/09/14 06:16:33;;;;;;;9.93;4.63;;;;;;;;;;5046708;28;20029;-77
2023/09/14 06:18:59;;;;;;;14.95;4.40;;;;;;;;;;5044821;28;20283;-77
2023/09/14 06:21:26;;;;;;;11.70;5.60;;;;;;;;;;5039584;28;20053;-78
2023/09/14 06:23:51;;;;;;;18.35;5.20;;;;;;;;;;5045230;28;20382;-78
2023/09/14 06:26:16;;;;;;;10.98;5.32;;;;;;;;;;5030106;28;20059;-80
2023/09/14 06:28:42;;;;;;;16.13;5.73;;;;;;;;;;5037585;28;20396;-80
2023/09/14 06:31:07;;;;;;;17.47;5.57;;;;;;;;;;5021671;28;20287;-79
2023/09/14 06:33:32;;;;;;;26.60;6.63;;;;;;;;;;5033643;28;20288;-80
2023/09/14 06:35:57;;;;;;;22.40;6.00;;;;;;;;;;5031383;28;20315;-79
2023/09/14 06:38:23;;;;;;;16.63;6.33;;;;;;;;;;5047869;28;20024;-78
2023/09/14 06:40:48;;;;;;;17.60;6.60;;;;;;;;;;5046488;28;20100;-79
2023/09/14 06:43:14;;;;;;;23.85;6.15;;;;;;;;;;5039637;28;20317;-79
2023/09/14 06:45:39;;;;;;;18.43;6.03;;;;;;;;;;5058665;28;20033;-78
2023/09/14 06:48:04;;;;;;;15.13;7.15;;;;;;;;;;5043087;28;20287;-79
2023/09/14 06:50:30;;;;;;;21.10;6.35;;;;;;;;;;5034994;28;20542;-79
2023/09/14 06:52:55;;;;;;;14.67;6.50;;;;;;;;;;5044175;28;20017;-78
2023/09/14 06:55:20;;;;;;;17.77;7.10;;;;;;;;;;5043809;28;20642;-78
2023/09/14 06:57:45;;;;;;;17.27;6.43;;;;;;;;;;5042383;28;20033;-78
2023/09/14 07:00:15;;;;;;;14.70;6.03;;;;;;;;;;5030959;28;20044;-77
2023/09/14 07:02:41;;;;;;;19.25;6.60;;;;;;;;;;5042235;28;20064;-77
2023/09/14 07:05:06;;;;;;;15.45;6.50;;;;;;;;;;5042662;28;20052;-77
2023/09/14 07:07:31;;;;;;;18.02;6.28;;;;;;;;;;5039366;28;20037;-77
2023/09/14 07:09:58;;;;;;;17.37;6.57;;;;;;;;;;5041988;28;20031;-77
2023/09/14 07:12:23;;;;;;;16.52;6.43;;;;;;;;;;5037740;28;20294;-78
2023/09/14 07:14:49;;;;;;;14.80;6.20;;;;;;;;;;5047167;28;20028;-78
2023/09/14 07:17:16;;;;;;;22.15;7.45;;;;;;;;;;5045370;28;20295;-78
2023/09/14 07:19:41;;;;;;;18.25;6.43;;;;;;;;;;5069142;28;20056;-77
2023/09/14 07:22:07;;;;;;;22.63;8.77;;;;;;;;;;5036440;28;20057;-88
2023/09/14 07:24:32;;;;;;;16.00;6.77;;;;;;;;;;5047458;28;20036;-88
2023/09/14 07:26:58;;;;;;;14.50;7.60;;;;;;;;;;5049484;28;20033;-87
2023/09/14 07:29:24;;;;;;;14.48;7.43;;;;;;;;;;5044915;28;20094;-87
2023/09/14 07:31:51;;;;;;;17.95;6.93;;;;;;;;;;5036322;28;20025;-88
2023/09/14 07:34:16;;;;;;;27.73;7.22;;;;;;;;;;5039237;28;20718;-88
2023/09/14 07:36:43;;;;;;;21.00;6.82;;;;;;;;;;5044456;28;20021;-88
2023/09/14 07:39:08;;;;;;;22.23;7.63;;;;;;;;;;5041732;28;20041;-88
2023/09/14 07:41:33;;;;;;;16.67;7.67;;;;;;;;;;5041660;28;20029;-88
2023/09/14 07:44:00;;;;;;;18.20;8.07;;;;;;;;;;5051537;28;20025;-87
2023/09/14 07:46:25;;;;;;;17.63;8.35;;;;;;;;;;5042476;28;20015;-87
2023/09/14 07:48:50;;;;;;;25.27;8.23;;;;;;;;;;5022607;28;20029;-87
2023/09/14 07:51:16;;;;;;;21.03;8.47;;;;;;;;;;5040899;28;20021;-87
2023/09/14 07:53:41;;;;;;;15.88;7.10;;;;;;;;;;5044004;28;20272;-87
2023/09/14 07:56:06;;;;;;;18.13;7.33;;;;;;;;;;5044399;28;20545;-86
2023/09/14 07:58:31;;;;;;;18.20;6.57;;;;;;;;;;5065896;28;20295;-87
2023/09/14 08:00:57;;;;;;;14.95;7.85;;;;;;;;;;5039947;28;20275;-87
2023/09/14 08:03:23;;;;;;;20.40;7.57;;;;;;;;;;5038253;28;20031;-87
2023/09/14 08:05:50;;;;;;;26.42;8.20;;;;;;;;;;5047198;28;20029;-87
2023/09/14 08:08:16;;;;;;;17.75;7.65;;;;;;;;;;5023860;28;20032;-88
2023/09/14 08:10:41;;;;;;;16.53;7.40;;;;;;;;;;5036606;28;20025;-88
2023/09/14 08:13:06;;;;;;;16.13;7.17;;;;;;;;;;5036924;28;20033;-88
2023/09/14 08:15:32;;;;;;;21.10;8.00;;;;;;;;;;5044176;28;20761;-88
2023/09/14 08:17:58;;;;;;;18.23;7.28;;;;;;;;;;5049755;28;20028;-87
2023/09/14 08:20:23;;;;;;;21.17;7.50;;;;;;;;;;5050893;28;20108;-88
2023/09/14 08:22:48;;;;;;;15.10;7.47;;;;;;;;;;5048028;28;20355;-88
2023/09/14 08:25:15;;;;;;;17.83;7.20;;;;;;;;;;5050021;28;20024;-88
2023/09/14 08:27:41;;;;;;;19.75;8.15;;;;;;;;;;5047758;28;20305;-88
2023/09/14 08:30:08;;;;;;;17.80;7.60;;;;;;;;;;5030213;28;20484;-87
2023/09/14 08:32:34;;;;;;;22.98;8.80;;;;;;;;;;5046055;28;20061;-88
2023/09/14 08:35:18;;;;;;;19.70;8.27;;;;;;;;;;5041660;28;20040;-88
2023/09/14 08:37:43;;;;;;;18.55;8.48;;;;;;;;;;5042766;28;20052;-89
2023/09/14 08:40:12;;;;;;;18.77;9.33;;;;;;;;;;5034656;28;20481;-88
2023/09/14 08:42:38;;;;;;;18.08;8.60;;;;;;;;;;5049737;28;20013;-87
2023/09/14 08:45:04;;;;;;;22.67;9.35;;;;;;;;;;5043582;28;20385;-87
2023/09/14 08:47:30;;;;;;;24.60;9.50;;;;;;;;;;5040873;28;20025;-88
2023/09/14 08:49:56;;;;;;;13.73;8.50;;;;;;;;;;5039398;28;20492;-88
2023/09/14 08:52:22;;;;;;;25.92;10.00;;;;;;;;;;5038388;28;20078;-87
2023/09/14 08:54:48;;;;;;;23.42;9.95;;;;;;;;;;5039550;28;20017;-88
2023/09/14 08:57:14;;;;;;;22.73;10.77;;;;;;;;;;5045554;28;20144;-87
2023/09/14 08:59:39;;;;;;;20.95;9.60;;;;;;;;;;5050399;28;20183;-88
2023/09/14 09:02:07;;;;;;;22.20;10.18;;;;;;;;;;5046995;28;20361;-89
2023/09/14 09:04:32;;;;;;;20.83;10.50;;;;;;;;;;5048140;28;20043;-88
2023/09/14 09:06:57;;;;;;;23.60;10.57;;;;;;;;;;5046815;28;20387;-88
2023/09/14 09:09:24;;;;;;;24.85;10.88;;;;;;;;;;5037252;28;20005;-88
2023/09/14 09:11:50;;;;;;;26.80;12.15;;;;;;;;;;5038994;28;20377;-88
2023/09/14 09:14:15;;;;;;;27.48;11.95;;;;;;;;;;5064685;28;20554;-88
2023/09/14 09:16:41;;;;;;;21.87;11.83;;;;;;;;;;5032828;28;20021;-88
2023/09/14 09:19:07;;;;;;;26.97;12.43;;;;;;;;;;5030286;28;20359;-88
2023/09/14 09:21:33;;;;;;;20.13;10.80;;;;;;;;;;5037413;28;20386;-88
2023/09/14 09:24:08;;;;;;;24.00;11.57;;;;;;;;;;5045346;28;20364;-88
2023/09/14 09:26:37;;;;;;;22.27;11.07;;;;;;;;;;5038395;28;20025;-89
2023/09/14 09:29:22;;;;;;;26.35;12.82;;;;;;;;;;5047065;28;20381;-88
2023/09/14 09:31:50;;;;;;;27.25;11.93;;;;;;;;;;5036871;28;20028;-88
2023/09/14 09:34:19;;;;;;;26.77;12.20;;;;;;;;;;5028820;28;20075;-88
2023/09/14 09:36:44;;;;;;;22.50;12.05;;;;;;;;;;5078283;28;20411;-87
2023/09/14 09:39:11;;;;;;;23.67;11.38;;;;;;;;;;5075393;28;20019;-88
2023/09/14 09:41:37;;;;;;;26.92;11.18;;;;;;;;;;5045145;28;20025;-88
2023/09/14 09:44:09;;;;;;;21.67;12.00;;;;;;;;;;5052101;28;20017;-88
2023/09/14 09:46:35;;;;;;;27.67;12.07;;;;;;;;;;5042606;28;20028;-88
2023/09/14 09:49:02;;;;;;;21.77;10.68;;;;;;;;;;5046968;28;20520;-89
2023/09/14 09:51:29;;;;;;;24.88;12.40;;;;;;;;;;5036471;28;20033;-89
2023/09/14 09:54:04;;;;;;;20.50;11.40;;;;;;;;;;5060499;28;20036;-89
2023/09/14 09:56:30;;;;;;;28.50;11.90;;;;;;;;;;5037347;28;20440;-89
2023/09/14 09:58:55;;;;;;;23.33;11.65;;;;;;;;;;5034535;28;20049;-88
2023/09/14 10:01:20;;;;;;;23.57;11.63;;;;;;;;;;5025458;28;20120;-89
2023/09/14 10:03:49;;;;;;;17.50;9.75;;;;;;;;;;5050177;28;20259;-89
2023/09/14 10:06:14;;;;;;;22.25;10.10;;;;;;;;;;5061244;28;20485;-89
2023/09/14 10:08:39;;;;;;;23.67;9.30;;;;;;;;;;5047521;28;20171;-89
2023/09/14 10:11:05;;;;;;;16.73;9.23;;;;;;;;;;5024045;28;20279;-89
2023/09/14 10:13:30;;;;;;;22.13;10.57;;;;;;;;;;5034364;28;20295;-89
2023/09/14 10:15:56;;;;;;;19.70;10.47;;;;;;;;;;5018141;28;20389;-88
2023/09/14 10:18:22;;;;;;;19.67;10.35;;;;;;;;;;5040512;28;20323;-89
2023/09/14 10:20:50;;;;;;;17.35;8.68;;;;;;;;;;5038718;28;20391;-88
2023/09/14 10:23:16;;;;;;;20.67;9.65;;;;;;;;;;5044165;28;20061;-88
2023/09/14 10:25:45;;;;;;;19.73;9.35;;;;;;;;;;5034207;28;20053;-88
2023/09/14 10:28:11;;;;;;;17.67;8.63;;;;;;;;;;5034886;28;20487;-89
2023/09/14 10:30:38;;;;;;;18.88;9.13;;;;;;;;;;5019095;28;20098;-89
2023/09/14 10:33:03;;;;;;;11.88;6.43;;;;;;;;;;5040968;28;20101;-88
2023/09/14 10:35:30;;;;;;;15.85;6.90;;;;;;;;;;5065624;28;20049;-89
2023/09/14 10:37:57;;;;;;;17.63;8.52;;;;;;;;;;5042337;28;20024;-88
2023/09/14 10:40:24;;;;;;;15.07;8.27;;;;;;;;;;5043757;28;20021;-89
2023/09/14 10:42:49;;;;;;;19.13;8.68;;;;;;;;;;5045608;28;20053;-89
2023/09/14 10:45:14;;;;;;;19.47;8.57;;;;;;;;;;5064188;28;20061;-88
2023/09/14 10:47:41;;;;;;;19.38;8.40;;;;;;;;;;5025831;28;20017;-87
2023/09/14 10:50:08;;;;;;;17.13;7.63;;;;;;;;;;5045643;28;20013;-80
2023/09/14 10:52:34;;;;;;;14.65;7.32;;;;;;;;;;5042651;28;20100;-89
2023/09/14 10:55:00;;;;;;;19.27;7.60;;;;;;;;;;5043255;28;20041;-89
2023/09/14 10:57:29;;;;;;;13.90;6.78;;;;;;;;;;5078234;28;20039;-88
2023/09/14 10:59:55;;;;;;;18.27;8.75;;;;;;;;;;5043009;28;20026;-87
2023/09/14 11:02:39;;;;;;;14.98;8.73;;;;;;;;;;5045581;28;20159;-89
2023/09/14 11:05:11;;;;;;;15.07;7.88;;;;;;;;;;5048808;28;20033;-88
2023/09/14 11:07:37;;;;;;;14.65;7.70;;;;;;;;;;5037918;28;20060;-88
2023/09/14 11:10:03;;;;;;;23.30;7.45;;;;;;;;;;5052808;28;20102;-89
2023/09/14 11:12:29;;;;;;;19.50;7.80;;;;;;;;;;5050932;28;20143;-89
2023/09/14 11:15:14;;;;;;;17.10;7.83;;;;;;;;;;5020462;28;20139;-89
2023/09/14 11:17:44;;;;;;;16.30;6.70;;;;;;;;;;5042504;28;20337;-88
2023/09/14 11:20:27;;;;;;;12.77;6.28;;;;;;;;;;5059895;28;20021;-89
2023/09/14 11:22:57;;;;;;;13.30;5.15;;;;;;;;;;5051640;28;20044;-89
2023/09/14 11:25:26;;;;;;;8.98;5.22;;;;;;;;;;5018519;28;20083;-89
2023/09/14 11:27:52;;;;;;;12.45;4.85;;;;;;;;;;5036921;28;20029;-89
2023/09/14 11:30:20;;;;;;;8.15;4.40;;;;;;;;;;5047708;28;20040;-89
2023/09/14 11:32:45;;;;;;;10.55;5.13;;;;;;;;;;5046390;28;20030;-89
2023/09/14 11:35:11;;;;;;;15.00;6.35;;;;;;;;;;5046660;28;20086;-89
2023/09/14 11:37:36;;;;;;;17.35;6.43;;;;;;;;;;5048378;28;20036;-89
2023/09/14 11:40:02;;;;;;;12.27;6.67;;;;;;;;;;5024353;28;20021;-89
2023/09/14 11:42:47;;;;;;;16.85;7.28;;;;;;;;;;5056738;28;20028;-88
2023/09/14 11:45:15;;;;;;;14.40;6.03;;;;;;;;;;5037574;28;20013;-89
2023/09/14 11:47:40;;;;;;;11.15;6.28;;;;;;;;;;5040288;28;20124;-88
2023/09/14 11:50:07;;;;;;;13.25;5.30;;;;;;;;;;5039796;28;20100;-88
2023/09/14 11:52:33;;;;;;;7.38;3.50;;;;;;;;;;5039820;28;20048;-89
2023/09/14 11:54:58;;;;;;;7.82;3.10;;;;;;;;;;5043938;28;20061;-89
2023/09/14 11:57:27;;;;;;;9.93;4.03;;;;;;;;;;5042459;28;20037;-89
2023/09/14 11:59:52;;;;;;;6.65;3.65;;;;;;;;;;5034467;28;20330;-88
2023/09/14 12:02:18;;;;;;;8.48;4.10;;;;;;;;;;5046003;28;20020;-78
2023/09/14 12:04:44;;;;;;;6.55;3.65;;;;;;;;;;5052774;28;20021;-79
2023/09/14 12:07:11;;;;;;;8.40;4.07;;;;;;;;;;5046441;28;20047;-78
2023/09/14 12:09:40;;;;;;;10.07;6.18;;;;;;;;;;5051662;28;20043;-78
2023/09/14 12:12:06;;;;;;;8.77;5.25;;;;;;;;;;5045338;28;20020;-78
2023/09/14 12:14:35;;;;;;;9.43;5.68;;;;;;;;;;5040616;28;20119;-78
2023/09/14 12:17:01;;;;;;;11.85;5.15;;;;;;;;;;5039857;28;20672;-79
2023/09/14 12:19:26;;;;;;;14.90;5.30;;;;;;;;;;5047217;28;20035;-78
2023/09/14 12:21:51;;;;;;;6.67;4.63;;;;;;;;;;5047883;28;20599;-78
2023/09/14 12:24:16;;;;;;;10.85;4.88;;;;;;;;;;5051406;28;20025;-79
2023/09/14 12:26:42;;;;;;;10.77;4.97;;;;;;;;;;5051395;28;20021;-78
2023/09/14 12:29:07;;;;;;;9.70;5.03;;;;;;;;;;5051907;28;20380;-79
2023/09/14 12:31:37;;;;;;;8.43;4.30;;;;;;;;;;5046326;28;20026;-79
2023/09/14 12:34:03;;;;;;;8.75;4.10;;;;;;;;;;5050138;28;20025;-79
2023/09/14 12:36:29;;;;;;;11.18;4.68;;;;;;;;;;5051181;28;20021;-79
2023/09/14 12:38:54;;;;;;;8.23;3.88;;;;;;;;;;5051251;28;20413;-79
2023/09/14 12:41:21;;;;;;;12.70;4.32;;;;;;;;;;5050538;28;20124;-79
2023/09/14 12:43:46;;;;;;;10.77;4.78;;;;;;;;;;5052373;28;20545;-79
2023/09/14 12:46:12;;;;;;;10.90;3.80;;;;;;;;;;5025360;28;20060;-79
2023/09/14 12:48:37;;;;;;;11.55;4.40;;;;;;;;;;5079027;28;20658;-79
2023/09/14 12:51:05;;;;;;;12.40;4.00;;;;;;;;;;5050657;28;20047;-79
2023/09/14 12:53:51;;;;;;;8.93;3.92;;;;;;;;;;5050220;28;20384;-78
2023/09/14 12:56:20;;;;;;;5.90;3.30;;;;;;;;;;5050865;28;20502;-79
2023/09/14 12:58:45;;;;;;;9.90;3.55;;;;;;;;;;5043741;28;20020;-79
2023/09/14 13:01:10;;;;;;;10.00;4.33;;;;;;;;;;5061235;28;20021;-79
2023/09/14 13:03:36;;;;;;;8.07;4.23;;;;;;;;;;5051528;28;20819;-79
2023/09/14 13:06:03;;;;;;;6.53;3.80;;;;;;;;;;5048325;28;20270;-79
2023/09/14 13:08:28;;;;;;;7.72;3.95;;;;;;;;;;5044810;28;20025;-79
2023/09/14 13:10:53;;;;;;;7.57;3.63;;;;;;;;;;5038101;28;20439;-79
2023/09/14 13:13:21;;;;;;;7.27;3.90;;;;;;;;;;5049891;28;20279;-79
2023/09/14 13:15:46;;;;;;;10.68;3.78;;;;;;;;;;5046104;28;20844;-78
2023/09/14 13:18:13;;;;;;;11.45;4.25;;;;;;;;;;5040516;28;20112;-79
2023/09/14 13:20:46;;;;;;;13.05;4.50;;;;;;;;;;5042286;28;20025;-79
2023/09/14 13:23:12;;;;;;;11.43;4.38;;;;;;;;;;5043542;28;20572;-79
2023/09/14 13:25:38;;;;;;;11.10;4.55;;;;;;;;;;5023759;28;20025;-79
2023/09/14 13:28:03;;;;;;;8.02;4.07;;;;;;;;;;5076594;28;20013;-79
2023/09/14 13:30:29;;;;;;;7.28;3.92;;;;;;;;;;5049332;28;20028;-79
2023/09/14 13:32:58;;;;;;;8.88;4.63;;;;;;;;;;5041848;28;20029;-79
2023/09/14 13:35:24;;;;;;;7.82;4.57;;;;;;;;;;5045213;28;20468;-79
2023/09/14 13:37:51;;;;;;;9.13;3.90;;;;;;;;;;5041791;28;20027;-78
2023/09/14 13:40:20;;;;;;;7.45;3.70;;;;;;;;;;5072944;28;20473;-79
2023/09/14 13:42:46;;;;;;;14.43;4.80;;;;;;;;;;5071198;28;20017;-78
2023/09/14 13:45:12;;;;;;;10.20;3.95;;;;;;;;;;5042653;28;20525;-78
2023/09/14 13:47:37;;;;;;;11.15;4.55;;;;;;;;;;5045701;28;20025;-79
2023/09/14 13:50:06;;;;;;;9.10;4.30;;;;;;;;;;5041303;28;20429;-79
2023/09/14 13:52:33;;;;;;;10.50;4.85;;;;;;;;;;5042836;28;20272;-79
2023/09/14 13:54:58;;;;;;;10.23;4.20;;;;;;;;;;5044953;28;20021;-79
2023/09/14 13:57:24;;;;;;;9.07;4.20;;;;;;;;;;5041362;28;20109;-79
2023/09/14 13:59:49;;;;;;;8.43;3.97;;;;;;;;;;5041887;28;20025;-79
2023/09/14 14:02:15;;;;;;;8.77;4.40;;;;;;;;;;5040561;28;20047;-79
2023/09/14 14:04:41;;;;;;;11.93;4.03;;;;;;;;;;5044560;28;20075;-79
2023/09/14 14:07:06;;;;;;;7.97;4.05;;;;;;;;;;5037787;28;20428;-79
2023/09/14 14:09:32;;;;;;;11.80;4.00;;;;;;;;;;5045370;28;20027;-79
2023/09/14 14:11:58;;;;;;;6.13;2.90;;;;;;;;;;5040998;28;20291;-79
2023/09/14 14:14:23;;;;;;;4.88;3.50;;;;;;;;;;5038079;28;20074;-79
2023/09/14 14:16:50;;;;;;;11.30;3.97;;;;;;;;;;5040793;28;20037;-78
2023/09/14 14:19:15;;;;;;;5.68;3.63;;;;;;;;;;5020536;28;20299;-79
2023/09/14 14:21:40;;;;;;;7.07;3.88;;;;;;;;;;5033493;28;20095;-79
2023/09/14 14:24:07;;;;;;;11.23;4.38;;;;;;;;;;5039161;28;20052;-79
2023/09/14 14:26:32;;;;;;;14.87;5.33;;;;;;;;;;5031866;28;20030;-79